About

Name: Madera Airport
Identifier:  MAE/KMAE
Serves:  Madera, California
Owner:  City of Madera
Public/Private:  Public
Local Time:  26. Jan 20:24 PST
Description: Madera Municipal Airport is a city-owned public airport three miles northwest of Madera, in Madera County, California. It is in the FAA's National Plan of Integrated Airport Systems for 2011–2015, which categorized it as a general aviation facility.
Source: Wikipedia

Location

Madera Airport

Runways
Identifier Length (m/ft) Surface
12/30 1,690/5,545 Asphalt
7/25 1,128/3,702 Asphalt

Statistics

Flights Per Day:
0 Flights
Distance: 421km (261mi)
Flights Delayed:
-100% (0 Flights/Day Delayed)
Average Delay: 18 minutes

Current Weather

 10 C (Humidity: 81%)
  6kt (11km/h / 6mph) from 330°
  16km (10 mi.)
 METAR KMAE 270353Z AUTO 33006KT 10SM CLR 10/07 A3026 RMK AO2 SLP247 T01000072

Claim Compensation

Claim compensation for your flight delay or cancellation
Flight delays happen, but that doesn’t mean you have to accept them. You may be entitled to as much as €600/$700 in compensation if your flight has been delayed, canceled or overbooked within the last three years.

Current Delays

Departures

N/A

Arrivals

N/A

Destinations

Map

Top Destinations

Airport Flights
per week
Seats
per week
  Orange County (SNA) 0 - 0 0

Airlines & Planes

Top Airlines

Airline Flights
per day
Seats
per day
  Novair 0 -

Top Models

model Flights seats